< < Back
Terminal Aerodrome Forecast


Current Version              Previous Versions:   1  2  3  4  5  6  7  8  9  

Terminal Aerodrome Forecast

676
FTUS44 KBMX 281700
TAFTCL
TAF
KTCL 281720Z 2818/2918 VRB03KT P6SM SKC
     FM291500 18007KT P6SM FEW250=



Latest METAR

407
SAUS70 KWBC 282000 RRE
MTRTCL
METAR KTCL 281953Z 19005KT 10SM CLR 12/M09 A3032 RMK AO2 SLP269
T01171089


USA.gov is the U.S. government's official web portal to all federal, state and local government web resources and services.